Ralston, Oklahoma
Current Conditions -  °F | °C
As of 6:53 AM on Friday 31 Oct 2014 (Local Time) from KPNC Reporting Station
Broken Clouds Broken Clouds  
Wind Chill: 40°   Ceiling: 2000
Heat Index: 45°   Visibility: 10mi
Dew Point: 39°   Wind: 10mph
Humidity: 80%   Direction: 350°N
Pressure: 30.38"   Gusts: NA
Location:  36.5°N, 96.73°W
Report Text: KPNC 311153Z AUTO 35009KT 10SM BKN020 07/04 A3038 RMK AO2 SLP285 T00720039 10111 20067 51025 $
Loading
Personal Weather Stations






























Interactive Weather Map
Tropical Storm Tracking
New forecast layout! Learn more

10-Day Weather Forecast

Advertisements
Track Severe Weather on mobile